Terminal Aerodrome Forecast
Issued by NWS

Home | Current Version | Previous Version | Text Only | Print | Product List | Glossary On
Versions: 1 2 3 4 5 6 7 8 9 10 11 12 13 14 15 16 17 18 19 20 21 22 23 24 25 26 27 28 29 30 31 32 33 34 35 36 37 38 39 40 41 42 43 44 45 46 47 48 49 50
000
FTUS44 KHGX 170520
TAFUTS
TAF
KUTS 170520Z 1706/1806 17005KT P6SM FEW020
     FM170900 19004KT P6SM BKN012
     FM171500 18008KT P6SM BKN025
     FM171700 18010KT P6SM SCT040
     FM180100 17005KT P6SM FEW250=

USA.gov is the U.S. government's official web portal to all federal, state and local government web resources and services.